KPNS/PNS METAR and TAF weather

Enter ICAO airport designator
Station Type Date Time Source
KPNS METAR 2022/11/26 08:53 UTC NOAA

KPNS 260853Z AUTO 09004KT 10SM OVC007 17/16 A3004 RMK AO2 SLP175 T01720156 58006


Station Type Date Time Source
KPNS Decoded METAR 2022/11/26 08:53 UTC NOAA

PENSACOLA REGIONAL AIRPORT, FL, United States (KPNS) 30-29N 087-11W 38M
Nov 26, 2022 - 03:53 AM EST / 2022.11.26 0853 UTC
Wind: from the E (090 degrees) at 5 MPH (4 KT):0
Visibility: 10 mile(s):0
Sky conditions: overcast
Temperature: 63.0 F (17.2 C)
Dew Point: 60.1 F (15.6 C)
Relative Humidity: 90%
Pressure (altimeter): 30.04 in. Hg (1017 hPa)
Pressure tendency: 0.02 inches (0.6 hPa) lower than three hours ago
ob: KPNS 260853Z AUTO 09004KT 10SM OVC007 17/16 A3004 RMK AO2 SLP175 T01720156 58006
cycle: 9

Station Type Date Time Source
KPNS TAF 2022/11/26 06:33 UTC NOAA

TAF KPNS 260531Z 2606/2706 04005KT P6SM OVC007
FM260900 04005KT 5SM BR OVC007
TEMPO 2610/2614 1SM BR OVC005
FM261500 10007KT P6SM OVC007
FM261800 13009KT P6SM OVC007
FM262300 14012KT 5SM TSRA BKN007CB OVC010

Example: see airport list